Chenois Creek, Washington
Current Conditions -  °F | °C
As of 10:53 AM on Tuesday 21 Oct 2014 (Local Time) from KHQM Reporting Station
Overcast Overcast  
Wind Chill: 57°   Ceiling: 4800
Heat Index: 57°   Visibility: 7mi
Dew Point: 54°   Wind: 15mph
Humidity: 89%   Direction: 170°S
Pressure: 29.9"   Gusts: NA
Location:  47.0202°N, 123.878°W
Report Text: KHQM 211753Z AUTO 17013KT 7SM SCT015 BKN048 OVC065 14/12 A2990 RMK AO2 RAE49 SLP127 P0009 60011 T01390122 10144 20133 51016
Loading
Personal Weather Stations






























Interactive Weather Map New forecast layout! Learn more

10-Day Weather Forecast

Advertisements
Track Severe Weather on mobile